Time;durP1;ratioP1;P1;durP2;ratioP2;P2;SDS_P1;SDS_P2;PMS_P1;PMS_P2;Temp;Humidity;BMP_temperature;BMP_pressure;BME280_temperature;BME280_humidity;BME280_pressure;Samples;Min_cycle;Max_cycle;Signal;HPM_P1;HPM_P2
2021/11/26 00:00:20;;;;;;;;;;;;;;;;;;2059931;28;643;-88
2021/11/26 00:01:21;;;;;;;;;;;;;;;;;;2050826;29;1397;-89
2021/11/26 00:02:24;;;;;;;;;;;;;;;;;;2043066;29;1525;-89
2021/11/26 00:03:25;;;;;;;;;;;;;;;;;;2043876;29;1307;-88
2021/11/26 00:04:27;;;;;;;;;;;;;;;;;;2043374;29;1485;-87
2021/11/26 00:05:29;;;;;;;;;;;;;;;;;;2043248;29;1301;-87
2021/11/26 00:06:31;;;;;;;;;;;;;;;;;;2043074;29;1183;-86
2021/11/26 00:07:32;;;;;;;;;;;;;;;;;;2035679;29;1337;-87
2021/11/26 00:08:34;;;;;;;;;;;;;;;;;;2035430;29;1335;-87
2021/11/26 00:09:34;;;;;;;;;;;;;;;;;;2043239;29;1309;-87
2021/11/26 00:10:36;;;;;;;;;;;;;;;;;;2043048;29;1450;-88
2021/11/26 00:11:37;;;;;;;;;;;;;;;;;;2051274;28;1906;-88
2021/11/26 00:12:40;;;;;;;;;;;;;;;;;;2059329;28;791;-87
2021/11/26 00:13:44;;;;;;;;;;;;;;;;;;2050959;28;1217;-89
2021/11/26 00:29:31;;;;;;;;;;;;;;;;;;2026981;29;1266;-89
2021/11/26 00:30:33;;;;;;;;;;;;;;;;;;2027058;29;1249;-89
2021/11/26 00:35:58;;;;;;;;;;;;;;;;;;2035118;29;608;-88
2021/11/26 00:41:46;;;;;;;;;;;;;;;;;;2035075;29;601;-88
2021/11/26 00:51:54;;;;;;;;;;;;;;;;;;2019486;29;953;-88
2021/11/26 00:53:06;;;;;;;;;;;;;;;;;;2027094;29;1209;-88
2021/11/26 00:54:16;;;;;;;;;;;;;;;;;;2017479;29;1243;-88
2021/11/26 01:05:31;;;;;;;;;;;;;;;;;;2026142;29;1262;-88
2021/11/26 01:12:16;;;;;;;;;;;;;;;;;;2019441;29;1903;-89
2021/11/26 01:13:19;;;;;;;;;;;;;;;;;;2019066;29;1199;-88
2021/11/26 01:14:22;;;;;;;;;;;;;;;;;;2018809;29;1418;-89
2021/11/26 01:15:25;;;;;;;;;;;;;;;;;;2009724;29;1239;-89
2021/11/26 01:16:27;;;;;;;;;;;;;;;;;;2018975;29;1309;-89
2021/11/26 01:20:00;;;;;;;;;;;;;;;;;;2031591;29;1263;-89
2021/11/26 01:21:06;;;;;;;;;;;;;;;;;;2066724;28;1221;-89
2021/11/26 01:24:35;;;;;;;;;;;;;;;;;;2058605;28;1172;-89
2021/11/26 01:25:37;;;;;;;;;;;;;;;;;;2034773;29;1262;-90
2021/11/26 01:26:39;;;;;;;;;;;;;;;;;;2035036;29;1119;-89
2021/11/26 01:27:58;;;;;;;;;;;;;;;;;;2034724;29;1293;-89
2021/11/26 01:28:58;;;;;;;;;;;;;;;;;;2039711;29;774;-90
2021/11/26 01:30:04;;;;;;;;;;;;;;;;;;2042485;29;1252;-89
2021/11/26 01:33:22;;;;;;;;;;;;;;;;;;2051363;29;615;-89
2021/11/26 01:34:25;;;;;;;;;;;;;;;;;;2034845;29;1248;-89
2021/11/26 01:37:05;;;;;;;;;;;;;;;;;;2039244;29;1378;-89
2021/11/26 01:38:06;;;;;;;;;;;;;;;;;;2035340;29;1303;-90
2021/11/26 01:43:02;;;;;;;;;;;;;;;;;;2034869;29;884;-89
2021/11/26 01:49:08;;;;;;;;;;;;;;;;;;2011576;29;621;-89
2021/11/26 01:50:17;;;;;;;;;;;;;;;;;;2020399;29;1214;-90
2021/11/26 01:51:19;;;;;;;;;;;;;;;;;;2018745;29;1423;-91
2021/11/26 01:52:21;;;;;;;;;;;;;;;;;;2018661;29;1907;-90
2021/11/26 01:53:23;;;;;;;;;;;;;;;;;;2030202;29;1436;-90
2021/11/26 01:54:24;;;;;;;;;;;;;;;;;;2018685;29;2073;-90
2021/11/26 01:55:26;;;;;;;;;;;;;;;;;;2026298;29;1291;-89
2021/11/26 01:56:27;;;;;;;;;;;;;;;;;;2041944;29;1453;-90
2021/11/26 01:57:29;;;;;;;;;;;;;;;;;;2034381;29;853;-90
2021/11/26 01:58:30;;;;;;;;;;;;;;;;;;2035308;29;1260;-89
2021/11/26 01:59:32;;;;;;;;;;;;;;;;;;2027802;29;1296;-88
2021/11/26 02:00:33;;;;;;;;;;;;;;;;;;2020607;29;1272;-89
2021/11/26 02:01:49;;;;;;;;;;;;;;;;;;2035913;29;1257;-89
2021/11/26 02:02:50;;;;;;;;;;;;;;;;;;2041981;29;1364;-88
2021/11/26 02:03:53;;;;;;;;;;;;;;;;;;2035863;29;869;-89
2021/11/26 02:04:55;;;;;;;;;;;;;;;;;;2028344;29;1507;-89
2021/11/26 02:10:42;;;;;;;;;;;;;;;;;;2013031;29;664;-89
2021/11/26 02:32:56;;;;;;;;;;;;;;;;;;1989737;29;1908;-89
2021/11/26 02:33:58;;;;;;;;;;;;;;;;;;1999528;29;1294;-89
2021/11/26 02:34:59;;;;;;;;;;;;;;;;;;2012279;29;1386;-89
2021/11/26 02:44:37;;;;;;;;;;;;;;;;;;1997425;29;645;-89
2021/11/26 02:58:34;;;;;;;;;;;;;;;;;;2028105;29;596;-89
2021/11/26 03:04:11;;;;;;;;;;;;;;;;;;2028042;29;672;-89
2021/11/26 03:25:59;;;;;;;;;;;;;;;;;;2012204;29;899;-88
2021/11/26 03:51:36;;;;;;;;;;;;;;;;;;2035424;29;664;-88
2021/11/26 03:52:42;;;;;;;;;;;;;;;;;;2027315;29;1896;-88
2021/11/26 03:53:48;;;;;;;;;;;;;;;;;;2027954;29;1455;-88
2021/11/26 03:54:54;;;;;;;;;;;;;;;;;;2027304;29;1247;-89
2021/11/26 03:55:58;;;;;;;;;;;;;;;;;;2035652;29;1400;-90
2021/11/26 03:56:59;;;;;;;;;;;;;;;;;;2034799;29;1454;-90
2021/11/26 03:58:01;;;;;;;;;;;;;;;;;;2027205;29;1326;-90
2021/11/26 03:59:06;;;;;;;;;;;;;;;;;;2037421;29;1853;-89
2021/11/26 04:00:08;;;;;;;;;;;;;;;;;;2043259;29;877;-89
2021/11/26 04:01:15;;;;;;;;;;;;;;;;;;2027373;29;1476;-89
2021/11/26 04:02:17;;;;;;;;;;;;;;;;;;2035932;29;1512;-89
2021/11/26 04:03:19;;;;;;;;;;;;;;;;;;2043106;29;1094;-89
2021/11/26 04:04:22;;;;;;;;;;;;;;;;;;2040084;29;1590;-89
2021/11/26 04:05:27;;;;;;;;;;;;;;;;;;2043105;29;1378;-89
2021/11/26 04:06:30;;;;;;;;;;;;;;;;;;2027583;29;1368;-88
2021/11/26 04:21:51;;;;;;;;;;;;;;;;;;2043757;29;588;-89
2021/11/26 04:23:00;;;;;;;;;;;;;;;;;;2035462;29;1284;-89
2021/11/26 04:24:22;;;;;;;;;;;;;;;;;;2035023;29;1392;-89
2021/11/26 04:25:34;;;;;;;;;;;;;;;;;;2030493;29;1306;-89
2021/11/26 04:26:55;;;;;;;;;;;;;;;;;;2029330;29;1202;-89
2021/11/26 04:28:05;;;;;;;;;;;;;;;;;;2038050;29;1268;-89
2021/11/26 04:29:26;;;;;;;;;;;;;;;;;;2043349;29;874;-88
2021/11/26 04:30:32;;;;;;;;;;;;;;;;;;2034619;29;1597;-89
2021/11/26 04:31:51;;;;;;;;;;;;;;;;;;2028581;29;1329;-88
2021/11/26 04:35:52;;;;;;;;;;;;;;;;;;2041082;29;1354;-88
2021/11/26 04:37:02;;;;;;;;;;;;;;;;;;2036154;29;1377;-90
2021/11/26 04:38:12;;;;;;;;;;;;;;;;;;2042934;29;1285;-88
2021/11/26 04:39:16;;;;;;;;;;;;;;;;;;2052552;28;1236;-88
2021/11/26 04:40:21;;;;;;;;;;;;;;;;;;2050702;29;1414;-89
2021/11/26 04:41:32;;;;;;;;;;;;;;;;;;2043124;29;743;-88
2021/11/26 04:42:39;;;;;;;;;;;;;;;;;;2043200;29;1457;-88
2021/11/26 04:43:44;;;;;;;;;;;;;;;;;;2035798;29;1254;-88
2021/11/26 04:44:45;;;;;;;;;;;;;;;;;;2051483;28;1329;-88
2021/11/26 04:45:49;;;;;;;;;;;;;;;;;;2051024;29;1345;-88
2021/11/26 04:47:02;;;;;;;;;;;;;;;;;;2042803;29;1315;-88
2021/11/26 04:48:13;;;;;;;;;;;;;;;;;;2037533;29;1198;-88
2021/11/26 04:53:41;;;;;;;;;;;;;;;;;;2034897;29;960;-89
2021/11/26 04:54:42;;;;;;;;;;;;;;;;;;2026720;29;1315;-91
2021/11/26 04:55:51;;;;;;;;;;;;;;;;;;2026899;29;1487;-89
2021/11/26 04:57:03;;;;;;;;;;;;;;;;;;2020520;29;1368;-90
2021/11/26 04:58:14;;;;;;;;;;;;;;;;;;2028301;29;1336;-90
2021/11/26 04:59:20;;;;;;;;;;;;;;;;;;2026822;29;1418;-90
2021/11/26 05:02:49;;;;;;;;;;;;;;;;;;2034921;29;900;-89
2021/11/26 05:04:06;;;;;;;;;;;;;;;;;;2026814;29;1352;-89
2021/11/26 05:14:50;;;;;;;;;;;;;;;;;;2008923;29;1522;-90
2021/11/26 05:15:51;;;;;;;;;;;;;;;;;;2011368;29;1526;-89
2021/11/26 05:16:53;;;;;;;;;;;;;;;;;;2034538;29;1420;-89
2021/11/26 05:17:56;;;;;;;;;;;;;;;;;;2043048;29;877;-89
2021/11/26 05:18:58;;;;;;;;;;;;;;;;;;2042289;29;1483;-96
2021/11/26 05:20:00;;;;;;;;;;;;;;;;;;2034665;29;1362;-89
2021/11/26 05:21:02;;;;;;;;;;;;;;;;;;2042207;29;1260;-89
2021/11/26 05:22:03;;;;;;;;;;;;;;;;;;2042916;29;1328;-89
2021/11/26 05:23:05;;;;;;;;;;;;;;;;;;2042286;29;1303;-89
2021/11/26 05:24:06;;;;;;;;;;;;;;;;;;2050427;28;1396;-89
2021/11/26 05:25:10;;;;;;;;;;;;;;;;;;2050542;28;1303;-88
2021/11/26 05:26:11;;;;;;;;;;;;;;;;;;2034604;29;1218;-89
2021/11/26 05:27:13;;;;;;;;;;;;;;;;;;2034571;29;1182;-88
2021/11/26 05:28:15;;;;;;;;;;;;;;;;;;2050302;28;1419;-89
2021/11/26 05:29:17;;;;;;;;;;;;;;;;;;2050212;29;1579;-88
2021/11/26 05:30:18;;;;;;;;;;;;;;;;;;2034392;29;1379;-89
2021/11/26 05:31:20;;;;;;;;;;;;;;;;;;2034280;29;1427;-88
2021/11/26 05:32:20;;;;;;;;;;;;;;;;;;2034144;29;1399;-87
2021/11/26 05:33:22;;;;;;;;;;;;;;;;;;2050141;29;1907;-87
2021/11/26 05:34:23;;;;;;;;;;;;;;;;;;2049823;29;1312;-87
2021/11/26 05:35:25;;;;;;;;;;;;;;;;;;2048038;29;1087;-85
2021/11/26 05:36:25;;;;;;;;;;;;;;;;;;2050162;29;1281;-85
2021/11/26 05:37:27;;;;;;;;;;;;;;;;;;2042526;29;1261;-85
2021/11/26 05:38:27;;;;;;;;;;;;;;;;;;2051732;28;1058;-85
2021/11/26 05:39:29;;;;;;;;;;;;;;;;;;2051155;28;1277;-88
2021/11/26 05:40:33;;;;;;;;;;;;;;;;;;2041998;29;1245;-86
2021/11/26 05:41:33;;;;;;;;;;;;;;;;;;2049645;28;1414;-80
2021/11/26 05:42:35;;;;;;;;;;;;;;;;;;2058335;28;1011;-83
2021/11/26 05:43:36;;;;;;;;;;;;;;;;;;2041913;29;1341;-83
2021/11/26 05:44:38;;;;;;;;;;;;;;;;;;2048680;29;1184;-83
2021/11/26 05:45:39;;;;;;;;;;;;;;;;;;2058011;28;1298;-82
2021/11/26 05:46:40;;;;;;;;;;;;;;;;;;2049945;29;1615;-82
2021/11/26 05:47:41;;;;;;;;;;;;;;;;;;2049781;28;956;-80
2021/11/26 05:48:43;;;;;;;;;;;;;;;;;;2058436;28;1122;-87
2021/11/26 05:49:44;;;;;;;;;;;;;;;;;;2049392;29;2033;-81
2021/11/26 05:50:46;;;;;;;;;;;;;;;;;;2058130;28;1346;-84
2021/11/26 05:51:47;;;;;;;;;;;;;;;;;;2057614;28;1166;-82
2021/11/26 05:52:49;;;;;;;;;;;;;;;;;;2041940;29;1910;-82
2021/11/26 05:53:50;;;;;;;;;;;;;;;;;;2041608;29;1361;-85
2021/11/26 05:54:51;;;;;;;;;;;;;;;;;;2058033;28;1314;-83
2021/11/26 05:55:57;;;;;;;;;;;;;;;;;;2057841;28;1173;-80
2021/11/26 05:56:59;;;;;;;;;;;;;;;;;;2042623;29;1383;-82
2021/11/26 05:58:01;;;;;;;;;;;;;;;;;;2041969;29;1173;-80
2021/11/26 05:59:02;;;;;;;;;;;;;;;;;;2049815;29;2120;-81
2021/11/26 06:00:04;;;;;;;;;;;;;;;;;;2053340;28;2095;-81
2021/11/26 06:01:06;;;;;;;;;;;;;;;;;;2058464;28;918;-87
2021/11/26 06:02:07;;;;;;;;;;;;;;;;;;2050383;29;1338;-85
2021/11/26 06:03:09;;;;;;;;;;;;;;;;;;2049829;29;1334;-86
2021/11/26 06:04:09;;;;;;;;;;;;;;;;;;2049489;29;1776;-84
2021/11/26 06:05:11;;;;;;;;;;;;;;;;;;2041590;29;1741;-84
2021/11/26 06:06:12;;;;;;;;;;;;;;;;;;2049593;28;1373;-85
2021/11/26 06:07:32;;;;;;;;;;;;;;;;;;2057653;28;1534;-92
2021/11/26 06:08:38;;;;;;;;;;;;;;;;;;2050216;29;1351;-90
2021/11/26 06:09:39;;;;;;;;;;;;;;;;;;2039768;29;1317;-93
2021/11/26 06:20:34;;;;;;;;;;;;;;;;;;2009847;29;1849;-93
2021/11/26 06:21:44;;;;;;;;;;;;;;;;;;2003455;29;1210;-91
2021/11/26 06:22:46;;;;;;;;;;;;;;;;;;2006316;29;1490;-91
2021/11/26 06:24:08;;;;;;;;;;;;;;;;;;2010241;29;1180;-93
2021/11/26 06:25:18;;;;;;;;;;;;;;;;;;2016169;29;2002;-89
2021/11/26 06:26:54;;;;;;;;;;;;;;;;;;2047248;29;883;-93
2021/11/26 06:28:27;;;;;;;;;;;;;;;;;;2049850;28;1198;-94
2021/11/26 06:29:28;;;;;;;;;;;;;;;;;;2028153;29;1388;-92
2021/11/26 06:30:30;;;;;;;;;;;;;;;;;;2022965;29;1934;-91
2021/11/26 06:31:32;;;;;;;;;;;;;;;;;;2038593;29;1431;-92
2021/11/26 06:32:32;;;;;;;;;;;;;;;;;;2054947;28;1339;-90
2021/11/26 06:33:36;;;;;;;;;;;;;;;;;;2041923;29;1972;-88
2021/11/26 06:34:36;;;;;;;;;;;;;;;;;;2041878;29;2057;-82
2021/11/26 06:35:39;;;;;;;;;;;;;;;;;;2041684;29;1477;-82
2021/11/26 06:36:40;;;;;;;;;;;;;;;;;;2041958;29;1338;-82
2021/11/26 06:37:42;;;;;;;;;;;;;;;;;;2041990;29;1560;-84
2021/11/26 06:38:43;;;;;;;;;;;;;;;;;;2042726;29;1344;-82
2021/11/26 06:39:45;;;;;;;;;;;;;;;;;;2041081;29;1774;-80
2021/11/26 06:40:46;;;;;;;;;;;;;;;;;;2034429;29;1239;-81
2021/11/26 06:41:49;;;;;;;;;;;;;;;;;;2049247;28;1054;-87
2021/11/26 06:42:50;;;;;;;;;;;;;;;;;;2055505;28;1511;-80
2021/11/26 06:43:52;;;;;;;;;;;;;;;;;;2051002;28;1089;-84
2021/11/26 06:44:52;;;;;;;;;;;;;;;;;;2051103;29;1949;-82
2021/11/26 06:45:54;;;;;;;;;;;;;;;;;;2051067;29;861;-79
2021/11/26 06:46:55;;;;;;;;;;;;;;;;;;2059120;28;1265;-85
2021/11/26 06:47:56;;;;;;;;;;;;;;;;;;2051101;29;1432;-83
2021/11/26 06:48:57;;;;;;;;;;;;;;;;;;2038896;29;1175;-83
2021/11/26 06:49:59;;;;;;;;;;;;;;;;;;2059024;28;1303;-80
2021/11/26 06:51:02;;;;;;;;;;;;;;;;;;2067041;28;845;-80
2021/11/26 06:52:03;;;;;;;;;;;;;;;;;;2059766;28;833;-79
2021/11/26 06:53:05;;;;;;;;;;;;;;;;;;2059408;28;1906;-84
2021/11/26 06:54:05;;;;;;;;;;;;;;;;;;2058489;28;1251;-80
2021/11/26 06:55:08;;;;;;;;;;;;;;;;;;2046999;29;1986;-82
2021/11/26 06:56:09;;;;;;;;;;;;;;;;;;2035856;29;1507;-84
2021/11/26 06:57:11;;;;;;;;;;;;;;;;;;2035270;29;1194;-80
2021/11/26 06:58:12;;;;;;;;;;;;;;;;;;2035371;29;1455;-79
2021/11/26 06:59:13;;;;;;;;;;;;;;;;;;2034951;29;1645;-80
2021/11/26 07:00:16;;;;;;;;;;;;;;;;;;2046823;28;896;-80
2021/11/26 07:01:18;;;;;;;;;;;;;;;;;;2059257;28;1220;-81
2021/11/26 07:02:18;;;;;;;;;;;;;;;;;;2059474;28;1527;-80
2021/11/26 07:03:20;;;;;;;;;;;;;;;;;;2059377;28;1021;-82
2021/11/26 07:04:23;;;;;;;;;;;;;;;;;;2051238;29;1273;-81
2021/11/26 07:05:23;;;;;;;;;;;;;;;;;;2043236;29;1261;-83
2021/11/26 07:06:27;;;;;;;;;;;;;;;;;;2051266;28;1118;-80
2021/11/26 07:07:28;;;;;;;;;;;;;;;;;;2051072;29;1607;-79
2021/11/26 07:08:30;;;;;;;;;;;;;;;;;;2050912;28;1348;-80
2021/11/26 07:09:30;;;;;;;;;;;;;;;;;;2059391;28;1211;-80
2021/11/26 07:10:32;;;;;;;;;;;;;;;;;;2052702;28;2191;-79
2021/11/26 07:11:33;;;;;;;;;;;;;;;;;;2059046;28;1691;-80
2021/11/26 07:12:35;;;;;;;;;;;;;;;;;;2050999;29;1425;-81
2021/11/26 07:13:36;;;;;;;;;;;;;;;;;;2035154;29;1987;-79
2021/11/26 07:14:38;;;;;;;;;;;;;;;;;;2049702;28;1356;-79
2021/11/26 07:15:40;;;;;;;;;;;;;;;;;;2050613;28;1284;-87
2021/11/26 07:16:44;;;;;;;;;;;;;;;;;;2051875;28;822;-84
2021/11/26 07:17:46;;;;;;;;;;;;;;;;;;2051181;28;1208;-86
2021/11/26 07:18:47;;;;;;;;;;;;;;;;;;2042887;29;1335;-81
2021/11/26 07:19:49;;;;;;;;;;;;;;;;;;2042729;29;1249;-81
2021/11/26 07:20:50;;;;;;;;;;;;;;;;;;2043414;29;1435;-81
2021/11/26 07:21:53;;;;;;;;;;;;;;;;;;2050975;29;819;-87
2021/11/26 07:22:59;;;;;;;;;;;;;;;;;;2051049;29;1271;-81
2021/11/26 07:24:01;;;;;;;;;;;;;;;;;;2043425;28;1352;-82
2021/11/26 07:25:03;;;;;;;;;;;;;;;;;;2042894;29;2026;-81
2021/11/26 07:26:04;;;;;;;;;;;;;;;;;;2043098;29;1289;-84
2021/11/26 07:27:06;;;;;;;;;;;;;;;;;;2042813;29;1521;-83
2021/11/26 07:28:07;;;;;;;;;;;;;;;;;;2035408;29;1642;-80
2021/11/26 07:29:09;;;;;;;;;;;;;;;;;;2030226;29;2115;-81
2021/11/26 07:30:13;;;;;;;;;;;;;;;;;;2035204;29;1236;-80
2021/11/26 07:31:13;;;;;;;;;;;;;;;;;;2042934;29;1174;-81
2021/11/26 07:32:16;;;;;;;;;;;;;;;;;;2042746;29;1233;-82
2021/11/26 07:33:16;;;;;;;;;;;;;;;;;;2035057;29;1701;-80
2021/11/26 07:34:19;;;;;;;;;;;;;;;;;;2027365;29;1972;-81
2021/11/26 07:35:20;;;;;;;;;;;;;;;;;;2034870;29;2106;-80
2021/11/26 07:36:21;;;;;;;;;;;;;;;;;;2035257;29;1395;-84
2021/11/26 07:37:25;;;;;;;;;;;;;;;;;;2042902;29;1382;-81
2021/11/26 07:38:26;;;;;;;;;;;;;;;;;;2043183;29;1357;-82
2021/11/26 07:39:33;;;;;;;;;;;;;;;;;;2042645;29;2025;-81
2021/11/26 07:40:35;;;;;;;;;;;;;;;;;;2043463;29;1439;-80
2021/11/26 07:41:35;;;;;;;;;;;;;;;;;;2050661;29;846;-80
2021/11/26 07:42:37;;;;;;;;;;;;;;;;;;2043039;29;1402;-82
2021/11/26 07:43:38;;;;;;;;;;;;;;;;;;2034872;29;1330;-82
2021/11/26 07:44:41;;;;;;;;;;;;;;;;;;2050906;29;1323;-83
2021/11/26 07:45:41;;;;;;;;;;;;;;;;;;2058582;28;1289;-82
2021/11/26 07:46:43;;;;;;;;;;;;;;;;;;2042979;29;1685;-82
2021/11/26 07:47:44;;;;;;;;;;;;;;;;;;2042747;29;1234;-83
2021/11/26 07:48:46;;;;;;;;;;;;;;;;;;2035078;29;1423;-80
2021/11/26 07:49:46;;;;;;;;;;;;;;;;;;2035696;29;1833;-82
2021/11/26 07:50:48;;;;;;;;;;;;;;;;;;2042835;29;1412;-84
2021/11/26 07:51:49;;;;;;;;;;;;;;;;;;2042871;29;1190;-81
2021/11/26 07:52:52;;;;;;;;;;;;;;;;;;2050977;29;790;-85
2021/11/26 07:53:53;;;;;;;;;;;;;;;;;;2048894;28;1998;-82
2021/11/26 07:54:55;;;;;;;;;;;;;;;;;;2034726;29;2118;-81
2021/11/26 07:55:56;;;;;;;;;;;;;;;;;;2041729;29;1329;-83
2021/11/26 07:56:57;;;;;;;;;;;;;;;;;;2042135;29;1345;-86
2021/11/26 07:57:59;;;;;;;;;;;;;;;;;;2042972;29;790;-78
2021/11/26 07:59:00;;;;;;;;;;;;;;;;;;2042316;29;1178;-86
2021/11/26 08:00:03;;;;;;;;;;;;;;;;;;2034951;29;1324;-88
2021/11/26 08:01:14;;;;;;;;;;;;;;;;;;2037917;29;656;-88
2021/11/26 08:02:16;;;;;;;;;;;;;;;;;;2051054;29;1310;-88
2021/11/26 08:03:21;;;;;;;;;;;;;;;;;;2050653;29;1348;-89
2021/11/26 08:04:22;;;;;;;;;;;;;;;;;;2035302;29;1264;-84
2021/11/26 08:05:24;;;;;;;;;;;;;;;;;;2035056;29;1346;-86
2021/11/26 08:06:26;;;;;;;;;;;;;;;;;;2050942;29;1384;-85
2021/11/26 08:07:26;;;;;;;;;;;;;;;;;;2042738;29;1274;-85
2021/11/26 08:08:30;;;;;;;;;;;;;;;;;;2050454;29;1259;-84
2021/11/26 08:09:30;;;;;;;;;;;;;;;;;;2050657;29;1316;-85
2021/11/26 08:10:33;;;;;;;;;;;;;;;;;;2042834;29;1256;-89
2021/11/26 08:11:34;;;;;;;;;;;;;;;;;;2042523;29;1218;-86
2021/11/26 08:12:52;;;;;;;;;;;;;;;;;;2042896;29;1528;-92
2021/11/26 08:13:57;;;;;;;;;;;;;;;;;;2042496;29;1989;-91
2021/11/26 08:15:00;;;;;;;;;;;;;;;;;;2044795;29;1403;-91
2021/11/26 08:16:02;;;;;;;;;;;;;;;;;;2042334;29;1316;-89
2021/11/26 08:17:08;;;;;;;;;;;;;;;;;;2042421;29;1206;-90
2021/11/26 08:18:13;;;;;;;;;;;;;;;;;;2043742;29;1407;-89
2021/11/26 08:19:17;;;;;;;;;;;;;;;;;;2042328;29;1343;-89
2021/11/26 08:20:21;;;;;;;;;;;;;;;;;;2043006;29;1194;-89
2021/11/26 08:21:21;;;;;;;;;;;;;;;;;;2042979;29;1241;-94
2021/11/26 08:22:25;;;;;;;;;;;;;;;;;;2043254;29;1294;-90
2021/11/26 08:23:32;;;;;;;;;;;;;;;;;;2042719;29;1371;-91
2021/11/26 08:24:34;;;;;;;;;;;;;;;;;;2049040;28;1966;-89
2021/11/26 08:25:37;;;;;;;;;;;;;;;;;;2050345;28;1941;-90
2021/11/26 08:26:41;;;;;;;;;;;;;;;;;;2050746;29;1294;-90
2021/11/26 08:27:41;;;;;;;;;;;;;;;;;;2043005;29;1295;-92
2021/11/26 08:28:44;;;;;;;;;;;;;;;;;;2050978;28;1270;-90
2021/11/26 08:29:47;;;;;;;;;;;;;;;;;;2050430;29;1489;-90
2021/11/26 08:30:52;;;;;;;;;;;;;;;;;;2035580;29;1104;-91
2021/11/26 08:31:54;;;;;;;;;;;;;;;;;;2042933;29;1421;-90
2021/11/26 08:32:56;;;;;;;;;;;;;;;;;;2042740;29;1246;-91
2021/11/26 08:33:56;;;;;;;;;;;;;;;;;;2042550;29;1915;-90
2021/11/26 08:35:00;;;;;;;;;;;;;;;;;;2034742;29;1842;-96
2021/11/26 08:36:02;;;;;;;;;;;;;;;;;;2034838;29;1345;-92
2021/11/26 08:37:02;;;;;;;;;;;;;;;;;;2042453;29;1232;-91
2021/11/26 08:38:05;;;;;;;;;;;;;;;;;;2050492;29;1393;-89
2021/11/26 08:39:13;;;;;;;;;;;;;;;;;;2045034;29;2058;-90
2021/11/26 08:40:16;;;;;;;;;;;;;;;;;;2042828;29;2062;-93
2021/11/26 08:41:18;;;;;;;;;;;;;;;;;;2035069;29;1405;-90
2021/11/26 08:42:20;;;;;;;;;;;;;;;;;;2035007;29;1308;-91
2021/11/26 08:43:23;;;;;;;;;;;;;;;;;;2042191;29;1432;-90
2021/11/26 08:44:25;;;;;;;;;;;;;;;;;;2038944;29;2027;-90
2021/11/26 08:45:28;;;;;;;;;;;;;;;;;;2042647;29;1348;-91
2021/11/26 08:46:30;;;;;;;;;;;;;;;;;;2042515;29;1415;-90
2021/11/26 08:47:51;;;;;;;;;;;;;;;;;;2050637;28;868;-91
2021/11/26 08:48:55;;;;;;;;;;;;;;;;;;2049980;28;1206;-94
2021/11/26 08:50:00;;;;;;;;;;;;;;;;;;2058030;28;1382;-94
2021/11/26 08:51:01;;;;;;;;;;;;;;;;;;2057684;28;1249;-87
2021/11/26 08:52:03;;;;;;;;;;;;;;;;;;2045068;29;1763;-94
2021/11/26 08:55:16;;;;;;;;;;;;;;;;;;2027327;29;1005;-92
2021/11/26 08:56:26;;;;;;;;;;;;;;;;;;2051041;29;1379;-94
2021/11/26 08:57:35;;;;;;;;;;;;;;;;;;2052433;28;1237;-94
2021/11/26 08:58:46;;;;;;;;;;;;;;;;;;2066225;28;1385;-96
2021/11/26 09:00:56;;;;;;;;;;;;;;;;;;2028728;29;687;-95
2021/11/26 09:02:25;;;;;;;;;;;;;;;;;;2018763;29;1484;-95
2021/11/26 09:03:27;;;;;;;;;;;;;;;;;;1996433;29;1335;-93
2021/11/26 09:04:56;;;;;;;;;;;;;;;;;;2018133;29;1243;-94
2021/11/26 09:06:03;;;;;;;;;;;;;;;;;;2038448;29;1422;-91
2021/11/26 09:07:08;;;;;;;;;;;;;;;;;;2035042;29;1309;-90
2021/11/26 09:08:18;;;;;;;;;;;;;;;;;;2048186;28;1206;-91
2021/11/26 09:09:19;;;;;;;;;;;;;;;;;;2057654;28;1290;-91
2021/11/26 09:10:38;;;;;;;;;;;;;;;;;;2058011;28;1206;-91
2021/11/26 09:11:42;;;;;;;;;;;;;;;;;;2048606;29;1364;-89
2021/11/26 09:12:45;;;;;;;;;;;;;;;;;;2050612;28;1074;-90
2021/11/26 09:13:47;;;;;;;;;;;;;;;;;;2049746;29;2055;-89
2021/11/26 09:14:52;;;;;;;;;;;;;;;;;;2043670;28;1974;-90
2021/11/26 09:15:53;;;;;;;;;;;;;;;;;;2050154;29;1493;-89
2021/11/26 09:16:55;;;;;;;;;;;;;;;;;;2035165;29;1614;-89
2021/11/26 09:17:56;;;;;;;;;;;;;;;;;;2055581;28;1846;-90
2021/11/26 09:18:58;;;;;;;;;;;;;;;;;;2058318;28;2051;-89
2021/11/26 09:19:59;;;;;;;;;;;;;;;;;;2041669;29;1380;-91
2021/11/26 09:27:22;;;;;;;;;;;;;;;;;;2026899;29;1320;-92
2021/11/26 09:32:17;;;;;;;;;;;;;;;;;;2029496;29;1538;-92
2021/11/26 09:34:04;;;;;;;;;;;;;;;;;;2032298;29;1156;-93
2021/11/26 09:35:15;;;;;;;;;;;;;;;;;;2022588;29;1330;-90
2021/11/26 09:36:22;;;;;;;;;;;;;;;;;;2026587;29;1390;-92
2021/11/26 09:37:59;;;;;;;;;;;;;;;;;;2021029;29;1479;-89
2021/11/26 09:39:07;;;;;;;;;;;;;;;;;;2059708;28;1317;-89
2021/11/26 09:40:10;;;;;;;;;;;;;;;;;;2057344;28;2008;-91
2021/11/26 09:41:13;;;;;;;;;;;;;;;;;;2042206;29;1460;-95
2021/11/26 09:42:21;;;;;;;;;;;;;;;;;;2034972;29;1457;-93
2021/11/26 09:43:26;;;;;;;;;;;;;;;;;;2035242;29;1308;-93
2021/11/26 09:44:43;;;;;;;;;;;;;;;;;;2041877;29;2013;-91
2021/11/26 09:45:49;;;;;;;;;;;;;;;;;;2044871;29;1657;-92
2021/11/26 09:46:54;;;;;;;;;;;;;;;;;;2042498;29;1366;-91
2021/11/26 09:47:58;;;;;;;;;;;;;;;;;;2035171;29;1327;-93
2021/11/26 09:49:05;;;;;;;;;;;;;;;;;;2036651;29;2015;-93
2021/11/26 09:50:12;;;;;;;;;;;;;;;;;;2042212;29;2029;-92
2021/11/26 09:51:36;;;;;;;;;;;;;;;;;;2050321;28;1330;-94
2021/11/26 09:52:41;;;;;;;;;;;;;;;;;;2047273;29;1270;-90
2021/11/26 09:54:04;;;;;;;;;;;;;;;;;;2045991;29;1127;-89
2021/11/26 09:55:12;;;;;;;;;;;;;;;;;;2034244;29;1902;-89
2021/11/26 09:57:51;;;;;;;;;;;;;;;;;;2038684;29;1519;-89
2021/11/26 09:59:03;;;;;;;;;;;;;;;;;;2029712;29;2222;-87
2021/11/26 10:00:09;;;;;;;;;;;;;;;;;;2036957;29;2060;-90
2021/11/26 10:01:16;;;;;;;;;;;;;;;;;;2050183;29;1392;-95
2021/11/26 10:02:27;;;;;;;;;;;;;;;;;;2042575;29;1366;-94
2021/11/26 10:03:40;;;;;;;;;;;;;;;;;;2042110;29;1300;-91
2021/11/26 10:07:28;;;;;;;;;;;;;;;;;;2026683;29;929;-92
2021/11/26 10:08:29;;;;;;;;;;;;;;;;;;2025277;29;1285;-91
2021/11/26 10:09:33;;;;;;;;;;;;;;;;;;2026511;29;1274;-89
2021/11/26 10:10:37;;;;;;;;;;;;;;;;;;2029106;29;2062;-91
2021/11/26 10:11:45;;;;;;;;;;;;;;;;;;2042539;29;1218;-91
2021/11/26 10:12:58;;;;;;;;;;;;;;;;;;2042988;29;1238;-91
2021/11/26 10:14:12;;;;;;;;;;;;;;;;;;2042360;29;2003;-90
2021/11/26 10:15:17;;;;;;;;;;;;;;;;;;2047683;28;1923;-90
2021/11/26 10:16:22;;;;;;;;;;;;;;;;;;2058125;28;1391;-89
2021/11/26 10:18:55;;;;;;;;;;;;;;;;;;2044872;29;1381;-89
2021/11/26 10:20:14;;;;;;;;;;;;;;;;;;2038203;29;1342;-92
2021/11/26 10:21:18;;;;;;;;;;;;;;;;;;2051899;29;1374;-91
2021/11/26 10:22:21;;;;;;;;;;;;;;;;;;2043728;29;1245;-88
2021/11/26 10:23:25;;;;;;;;;;;;;;;;;;2043928;29;1467;-91
2021/11/26 10:24:46;;;;;;;;;;;;;;;;;;2043791;29;1603;-89
2021/11/26 10:25:50;;;;;;;;;;;;;;;;;;2046599;29;1222;-90
2021/11/26 10:26:55;;;;;;;;;;;;;;;;;;2051852;29;1364;-92
2021/11/26 10:28:04;;;;;;;;;;;;;;;;;;2051258;29;1389;-91
2021/11/26 10:29:07;;;;;;;;;;;;;;;;;;2059808;28;1301;-92
2021/11/26 10:30:40;;;;;;;;;;;;;;;;;;2054920;28;1384;-92
2021/11/26 10:31:47;;;;;;;;;;;;;;;;;;2048085;29;1420;-90
2021/11/26 10:33:06;;;;;;;;;;;;;;;;;;2051240;28;1205;-90
2021/11/26 10:36:26;;;;;;;;;;;;;;;;;;2028313;29;962;-91
2021/11/26 10:38:14;;;;;;;;;;;;;;;;;;2046042;28;1109;-92
2021/11/26 10:39:17;;;;;;;;;;;;;;;;;;2046683;28;1405;-91
2021/11/26 10:40:20;;;;;;;;;;;;;;;;;;2035778;29;1484;-91
2021/11/26 10:41:27;;;;;;;;;;;;;;;;;;2036680;29;1218;-90
2021/11/26 10:47:55;;;;;;;;;;;;;;;;;;2060096;28;891;-90
2021/11/26 10:49:03;;;;;;;;;;;;;;;;;;2042427;29;1939;-91
2021/11/26 10:50:22;;;;;;;;;;;;;;;;;;2043155;29;1482;-92
2021/11/26 10:51:52;;;;;;;;;;;;;;;;;;2038401;29;1309;-92
2021/11/26 11:00:36;;;;;;;;;;;;;;;;;;2035319;29;1249;-92
2021/11/26 11:01:47;;;;;;;;;;;;;;;;;;2043098;29;1262;-92
2021/11/26 11:03:10;;;;;;;;;;;;;;;;;;2044394;29;1364;-92
2021/11/26 11:04:16;;;;;;;;;;;;;;;;;;2045650;29;2109;-91
2021/11/26 11:05:30;;;;;;;;;;;;;;;;;;2039179;29;2066;-94
2021/11/26 11:06:33;;;;;;;;;;;;;;;;;;2037291;29;1302;-91
2021/11/26 11:07:45;;;;;;;;;;;;;;;;;;2035498;29;1434;-93
2021/11/26 11:09:24;;;;;;;;;;;;;;;;;;2048971;28;763;-94
2021/11/26 11:10:29;;;;;;;;;;;;;;;;;;2049519;29;1238;-93
2021/11/26 11:11:34;;;;;;;;;;;;;;;;;;2043225;29;1588;-91
2021/11/26 11:12:38;;;;;;;;;;;;;;;;;;2028520;29;1198;-94
2021/11/26 11:13:40;;;;;;;;;;;;;;;;;;2036129;29;1412;-88
2021/11/26 11:14:53;;;;;;;;;;;;;;;;;;2035165;29;2055;-86
2021/11/26 11:16:05;;;;;;;;;;;;;;;;;;2036474;29;1345;-85
2021/11/26 11:17:10;;;;;;;;;;;;;;;;;;2044299;29;973;-85
2021/11/26 11:18:15;;;;;;;;;;;;;;;;;;2043789;29;1382;-92
2021/11/26 11:19:16;;;;;;;;;;;;;;;;;;2051488;28;1434;-91
2021/11/26 11:22:03;;;;;;;;;;;;;;;;;;2043218;29;1303;-92
2021/11/26 11:23:08;;;;;;;;;;;;;;;;;;2042914;29;1220;-89
2021/11/26 11:24:13;;;;;;;;;;;;;;;;;;2042386;29;1768;-91
2021/11/26 11:25:28;;;;;;;;;;;;;;;;;;2043167;29;1305;-94
2021/11/26 11:28:14;;;;;;;;;;;;;;;;;;2048228;29;1423;-92
2021/11/26 11:31:31;;;;;;;;;;;;;;;;;;2047432;29;1505;-90
2021/11/26 11:33:25;;;;;;;;;;;;;;;;;;2058410;28;1104;-95
2021/11/26 11:49:44;;;;;;;;;;;;;;;;;;2106709;28;610;-95
2021/11/26 11:51:07;;;;;;;;;;;;;;;;;;2098037;28;1214;-94
2021/11/26 11:52:18;;;;;;;;;;;;;;;;;;2104887;28;1561;-91
2021/11/26 11:53:30;;;;;;;;;;;;;;;;;;2115675;28;1713;-90
2021/11/26 11:54:36;;;;;;;;;;;;;;;;;;2109865;28;1190;-92
2021/11/26 11:57:42;;;;;;;;;;;;;;;;;;2115126;28;1973;-91
2021/11/26 11:59:04;;;;;;;;;;;;;;;;;;2114745;28;1120;-92